TAF LDLO 230601Z 2307/2406 VRB02KT CAVOK
                 TX19/2312Z TN12/2404Z
           TEMPO 2307/2309 02012KT
           TEMPO 2314/2318 22007KT=
TAF AMD LDLO 221502Z 2215/2312 CNL=
TAF LDLO 221125Z 2212/2312 18008KT 9999 BKN050
                 TX18/2212Z TN15/2304Z
    PROB30 TEMPO 2212/2221 SHRA FEW020TCU BKN035
           BECMG 2302/2304 02010KT=
TAF LDLO 220600Z 2206/2306 18008KT 9999 SCT030 BKN040
                 TX19/2213Z TN15/2304Z
    PROB40 TEMPO 2206/2209 RA
    PROB30 TEMPO 2206/2212 SHRA FEW020TCU BKN035
           BECMG 2301/2303 02010KT=